Penn Laird, Virginia
Current Conditions -  °F | °C
As of 8:35 PM on Tuesday 21 Oct 2014 (Local Time) from KVBW Reporting Station
Overcast Overcast  
Wind Chill: 52°   Ceiling: 4000
Heat Index: 52°   Visibility: 10mi
Dew Point: 47°   Wind: 0mph
Humidity: 83%   Direction: NA
Pressure: 29.92"   Gusts: NA
Location:  38.39°N, 78.8°W
Report Text: KVBW 220035Z AUTO 00000KT 10SM BKN040 OVC048 11/08 A2992 RMK AO2 T01100083
Loading
Personal Weather Stations






























Interactive Weather Map
Tropical Storm Tracking
New forecast layout! Learn more

10-Day Weather Forecast

Advertisements
Track Severe Weather on mobile